MET'MAP v2.0
soon released !

Expected late october,
this new version will be
more efficient, smarter,
and hosted on a brand new
server x3 powerfull...
...and still free !


Not compatible ?
Try the mobile version !

LOG IN : | Subscribe | Disclaimer | Who is Orbifly ? |
ICAO code :

TAF - LTAG Incirlik AB - 02 Jun 2020 05:13 UTC - Data Source NOAA   


- Airport Elevation : 238 ft
- IATA code : UAB
- No reported NOTAMs.


LTAG - Incirlik AB

Latest METAR recorded : 2015/08/11 07:50 LTAG 110750Z 20010KT 9999 SCT035 31/21 Q1008 NOSIG
TAF TAF LTAG
Valid from the 02 at 00:00 until the 03 at 00:00 UTC


012240Z 0200/0224 03008KT CAVOK
BECMG 0201/0204 SCT040 BKN100
BECMG 0213/0215 20012KT CAVOK
BECMG 0217/0219 VRB02KT SCT030

Source NOAA


MET'MAP, your aeronautical weather chart ! - Copyright ORBIFLY December 2007

Programming & Development : Alexandra Zaïnal
Co-Developer : Marc-Olivier Méhu
Technical & hardware support : Manuel Goepfert
Concept & Financing : Baudouin d'Aumeries